Aérodrome :
LOGIN :

S'inscrire | Disclaimer

   EN    FR    IT 

 










Légende :    VFR   VFR Marginal   IFR   IFR Intensif   IFR Très Intensif
Visi : 
Plafond : 
>= 8 km
>= 3000ft
5 à 8 km
1000 à 3000 ft
1500m à 5 km
500 à 1000 ft
800 à 1500m
200 à 500 ft
< 800m
< 200 ft
Symboles :   Orages  Brouillard  Fortes neiges  Fortes précipitations  Vent > 20 kt
SIGMETs :   Divers  Orages  Givrage  Turbulence  Onde Orograph.  Cendres Volcan.






- Altitude de l'aérodrome : 160 ft
- Code IATA : LRT


LFRH - Lorient Lann Bihoue

DERNIER METAR :
  • 020330Z AUTO 31004KT CAVOK 05/03 Q1024 NOSIG

METARs EXPIRÉS :
  • 020300Z AUTO 32004KT CAVOK 05/03 Q1024 NOSIG
  • 020230Z AUTO 31004KT CAVOK 05/04 Q1025 NOSIG
  • 020200Z AUTO 31005KT CAVOK 05/03 Q1025 NOSIG
  • 020130Z AUTO 29004KT CAVOK 05/03 Q1025 NOSIG
  • 020100Z AUTO 30004KT 9999 SCT039 SCT190 OVC220 05/04 Q1025 NOSIG

TAF TAF LFRH
Valide du 02 à 00h jusqu'au 03 à 00h UTC


012300Z 0200/0224 34010KT 9999 SCT030
BECMG 0210/0212 28005KT
TEMPO 0215/0220 4000 -RADZ BKN010



MET'MAP, la Météo Aéronautique d'un coup d'oeil ! - Copyright ORBIFLY Décembre 2007 - Disclaimer

ORBIFLY MET'MAP TEAM :

Programmation & Développement : Alexandra Zaïnal
Sur une idée originale de : Baudouin d'Aumeries
Assistance à la programmation : Marc-Olivier Méhu
Soutien technique & logistique : Manuel Goepfert

Contact : metmap@orbifly.com




SOURCES & CREDITS :

   NOAA